sensor_id;sensor_type;location;lat;lon;timestamp;P1;durP1;ratioP1;P2;durP2;ratioP2
3795;SDS011;1913;50.660;7.834;2023-03-13T00:00:56;19.97;;;4.00;;
3795;SDS011;1913;50.660;7.834;2023-03-13T00:03:23;25.37;;;4.90;;
3795;SDS011;1913;50.660;7.834;2023-03-13T00:05:48;32.30;;;5.27;;
3795;SDS011;1913;50.660;7.834;2023-03-13T00:08:13;20.57;;;4.20;;
3795;SDS011;1913;50.660;7.834;2023-03-13T00:10:39;25.60;;;6.07;;
3795;SDS011;1913;50.660;7.834;2023-03-13T00:13:06;31.90;;;4.80;;
3795;SDS011;1913;50.660;7.834;2023-03-13T00:15:32;21.63;;;4.10;;
3795;SDS011;1913;50.660;7.834;2023-03-13T00:17:58;22.13;;;3.50;;
3795;SDS011;1913;50.660;7.834;2023-03-13T00:20:23;24.40;;;5.07;;
3795;SDS011;1913;50.660;7.834;2023-03-13T00:22:49;22.37;;;4.83;;
3795;SDS011;1913;50.660;7.834;2023-03-13T00:25:14;36.07;;;5.73;;
3795;SDS011;1913;50.660;7.834;2023-03-13T00:27:40;25.97;;;4.53;;
3795;SDS011;1913;50.660;7.834;2023-03-13T00:30:05;20.33;;;4.43;;
3795;SDS011;1913;50.660;7.834;2023-03-13T00:32:31;27.27;;;4.90;;
3795;SDS011;1913;50.660;7.834;2023-03-13T00:34:57;24.80;;;3.97;;
3795;SDS011;1913;50.660;7.834;2023-03-13T00:37:22;24.93;;;4.97;;
3795;SDS011;1913;50.660;7.834;2023-03-13T00:39:47;25.73;;;4.40;;
3795;SDS011;1913;50.660;7.834;2023-03-13T00:42:13;22.73;;;4.80;;
3795;SDS011;1913;50.660;7.834;2023-03-13T00:44:38;22.10;;;4.33;;
3795;SDS011;1913;50.660;7.834;2023-03-13T00:47:03;23.73;;;4.90;;
3795;SDS011;1913;50.660;7.834;2023-03-13T00:49:31;17.10;;;3.90;;
3795;SDS011;1913;50.660;7.834;2023-03-13T00:51:56;23.33;;;4.80;;
3795;SDS011;1913;50.660;7.834;2023-03-13T00:54:21;21.73;;;4.37;;
3795;SDS011;1913;50.660;7.834;2023-03-13T00:56:47;27.63;;;4.97;;
3795;SDS011;1913;50.660;7.834;2023-03-13T00:59:13;22.73;;;4.40;;
3795;SDS011;1913;50.660;7.834;2023-03-13T01:01:39;22.77;;;4.17;;
3795;SDS011;1913;50.660;7.834;2023-03-13T01:04:05;20.17;;;4.47;;
3795;SDS011;1913;50.660;7.834;2023-03-13T01:06:33;20.27;;;4.33;;
3795;SDS011;1913;50.660;7.834;2023-03-13T01:09:00;20.97;;;4.77;;
3795;SDS011;1913;50.660;7.834;2023-03-13T01:11:27;21.97;;;5.10;;
3795;SDS011;1913;50.660;7.834;2023-03-13T01:14:00;19.17;;;4.90;;
3795;SDS011;1913;50.660;7.834;2023-03-13T01:16:28;19.93;;;3.83;;
3795;SDS011;1913;50.660;7.834;2023-03-13T01:18:57;18.03;;;3.70;;
3795;SDS011;1913;50.660;7.834;2023-03-13T01:21:24;15.47;;;4.03;;
3795;SDS011;1913;50.660;7.834;2023-03-13T01:23:50;29.80;;;5.03;;
3795;SDS011;1913;50.660;7.834;2023-03-13T01:26:16;19.10;;;4.13;;
3795;SDS011;1913;50.660;7.834;2023-03-13T01:28:42;21.60;;;4.77;;
3795;SDS011;1913;50.660;7.834;2023-03-13T01:31:09;20.53;;;4.33;;
3795;SDS011;1913;50.660;7.834;2023-03-13T01:33:46;20.27;;;4.13;;
3795;SDS011;1913;50.660;7.834;2023-03-13T01:36:12;28.43;;;4.40;;
3795;SDS011;1913;50.660;7.834;2023-03-13T01:38:37;17.43;;;3.90;;
3795;SDS011;1913;50.660;7.834;2023-03-13T01:41:03;21.93;;;4.30;;
3795;SDS011;1913;50.660;7.834;2023-03-13T01:43:30;17.73;;;3.90;;
3795;SDS011;1913;50.660;7.834;2023-03-13T01:45:59;21.73;;;4.53;;
3795;SDS011;1913;50.660;7.834;2023-03-13T01:48:33;28.67;;;4.33;;
3795;SDS011;1913;50.660;7.834;2023-03-13T01:51:07;18.93;;;4.00;;
3795;SDS011;1913;50.660;7.834;2023-03-13T01:53:37;24.93;;;4.53;;
3795;SDS011;1913;50.660;7.834;2023-03-13T01:56:06;21.53;;;4.30;;
3795;SDS011;1913;50.660;7.834;2023-03-13T01:58:35;21.50;;;4.10;;
3795;SDS011;1913;50.660;7.834;2023-03-13T02:01:02;21.53;;;4.57;;
3795;SDS011;1913;50.660;7.834;2023-03-13T02:03:27;21.50;;;4.80;;
3795;SDS011;1913;50.660;7.834;2023-03-13T02:05:53;23.47;;;5.33;;
3795;SDS011;1913;50.660;7.834;2023-03-13T02:08:24;16.80;;;4.60;;
3795;SDS011;1913;50.660;7.834;2023-03-13T02:10:57;20.67;;;3.97;;
3795;SDS011;1913;50.660;7.834;2023-03-13T02:13:31;27.97;;;4.90;;
3795;SDS011;1913;50.660;7.834;2023-03-13T02:15:56;12.43;;;3.70;;
3795;SDS011;1913;50.660;7.834;2023-03-13T02:18:22;23.20;;;3.93;;
3795;SDS011;1913;50.660;7.834;2023-03-13T02:20:49;27.20;;;4.00;;
3795;SDS011;1913;50.660;7.834;2023-03-13T02:23:21;17.30;;;3.40;;
3795;SDS011;1913;50.660;7.834;2023-03-13T02:25:53;16.50;;;4.23;;
3795;SDS011;1913;50.660;7.834;2023-03-13T02:28:22;16.30;;;3.83;;
3795;SDS011;1913;50.660;7.834;2023-03-13T02:30:52;22.30;;;3.97;;
3795;SDS011;1913;50.660;7.834;2023-03-13T02:33:19;23.10;;;4.67;;
3795;SDS011;1913;50.660;7.834;2023-03-13T02:35:46;18.10;;;3.40;;
3795;SDS011;1913;50.660;7.834;2023-03-13T02:38:15;18.03;;;4.53;;
3795;SDS011;1913;50.660;7.834;2023-03-13T02:40:44;18.30;;;2.93;;
3795;SDS011;1913;50.660;7.834;2023-03-13T02:43:16;16.00;;;3.23;;
3795;SDS011;1913;50.660;7.834;2023-03-13T02:45:59;14.03;;;3.23;;
3795;SDS011;1913;50.660;7.834;2023-03-13T02:48:32;12.70;;;2.90;;
3795;SDS011;1913;50.660;7.834;2023-03-13T02:51:04;11.90;;;2.93;;
3795;SDS011;1913;50.660;7.834;2023-03-13T02:53:34;18.77;;;4.13;;
3795;SDS011;1913;50.660;7.834;2023-03-13T02:56:01;12.10;;;2.87;;
3795;SDS011;1913;50.660;7.834;2023-03-13T02:58:27;15.00;;;3.40;;
3795;SDS011;1913;50.660;7.834;2023-03-13T03:00:59;16.67;;;3.60;;
3795;SDS011;1913;50.660;7.834;2023-03-13T03:03:31;14.00;;;3.37;;
3795;SDS011;1913;50.660;7.834;2023-03-13T03:05:56;11.53;;;2.47;;
3795;SDS011;1913;50.660;7.834;2023-03-13T03:08:22;15.27;;;3.80;;
3795;SDS011;1913;50.660;7.834;2023-03-13T03:10:47;11.30;;;2.87;;
3795;SDS011;1913;50.660;7.834;2023-03-13T03:13:12;11.00;;;2.43;;
3795;SDS011;1913;50.660;7.834;2023-03-13T03:15:38;13.60;;;2.80;;
3795;SDS011;1913;50.660;7.834;2023-03-13T03:18:06;16.47;;;3.60;;
3795;SDS011;1913;50.660;7.834;2023-03-13T03:20:31;9.53;;;2.77;;
3795;SDS011;1913;50.660;7.834;2023-03-13T03:22:57;7.90;;;2.50;;
3795;SDS011;1913;50.660;7.834;2023-03-13T03:25:22;8.37;;;2.80;;
3795;SDS011;1913;50.660;7.834;2023-03-13T03:27:47;10.83;;;2.33;;
3795;SDS011;1913;50.660;7.834;2023-03-13T03:30:14;9.17;;;2.63;;
3795;SDS011;1913;50.660;7.834;2023-03-13T03:32:39;10.87;;;2.30;;
3795;SDS011;1913;50.660;7.834;2023-03-13T03:35:05;10.03;;;3.67;;
3795;SDS011;1913;50.660;7.834;2023-03-13T03:37:31;8.13;;;2.50;;
3795;SDS011;1913;50.660;7.834;2023-03-13T03:39:56;5.17;;;2.20;;
3795;SDS011;1913;50.660;7.834;2023-03-13T03:42:22;6.63;;;2.40;;
3795;SDS011;1913;50.660;7.834;2023-03-13T03:44:47;6.57;;;2.60;;
3795;SDS011;1913;50.660;7.834;2023-03-13T03:47:12;9.73;;;2.40;;
3795;SDS011;1913;50.660;7.834;2023-03-13T03:49:38;8.33;;;2.43;;
3795;SDS011;1913;50.660;7.834;2023-03-13T03:52:03;6.40;;;2.67;;
3795;SDS011;1913;50.660;7.834;2023-03-13T03:54:28;11.00;;;2.40;;
3795;SDS011;1913;50.660;7.834;2023-03-13T03:56:54;10.80;;;2.00;;
3795;SDS011;1913;50.660;7.834;2023-03-13T03:59:19;6.40;;;1.97;;
3795;SDS011;1913;50.660;7.834;2023-03-13T04:01:45;4.60;;;2.13;;
3795;SDS011;1913;50.660;7.834;2023-03-13T04:04:11;6.77;;;1.87;;
3795;SDS011;1913;50.660;7.834;2023-03-13T04:06:36;4.33;;;2.00;;
3795;SDS011;1913;50.660;7.834;2023-03-13T04:09:01;4.70;;;2.00;;
3795;SDS011;1913;50.660;7.834;2023-03-13T04:11:27;4.70;;;1.80;;
3795;SDS011;1913;50.660;7.834;2023-03-13T04:13:52;7.70;;;1.80;;
3795;SDS011;1913;50.660;7.834;2023-03-13T04:16:18;8.00;;;1.83;;
3795;SDS011;1913;50.660;7.834;2023-03-13T04:18:43;3.90;;;1.60;;
3795;SDS011;1913;50.660;7.834;2023-03-13T04:21:08;2.57;;;1.70;;
3795;SDS011;1913;50.660;7.834;2023-03-13T04:23:34;3.33;;;1.30;;
3795;SDS011;1913;50.660;7.834;2023-03-13T04:25:59;5.00;;;2.00;;
3795;SDS011;1913;50.660;7.834;2023-03-13T04:28:24;5.10;;;1.77;;
3795;SDS011;1913;50.660;7.834;2023-03-13T04:30:50;7.33;;;1.97;;
3795;SDS011;1913;50.660;7.834;2023-03-13T04:33:16;2.90;;;1.70;;
3795;SDS011;1913;50.660;7.834;2023-03-13T04:35:42;4.07;;;1.63;;
3795;SDS011;1913;50.660;7.834;2023-03-13T04:38:08;5.30;;;1.43;;
3795;SDS011;1913;50.660;7.834;2023-03-13T04:40:33;4.30;;;1.53;;
3795;SDS011;1913;50.660;7.834;2023-03-13T04:42:58;3.20;;;1.47;;
3795;SDS011;1913;50.660;7.834;2023-03-13T04:45:24;1.90;;;1.30;;
3795;SDS011;1913;50.660;7.834;2023-03-13T04:47:49;8.57;;;1.43;;
3795;SDS011;1913;50.660;7.834;2023-03-13T04:50:15;2.53;;;1.23;;
3795;SDS011;1913;50.660;7.834;2023-03-13T04:52:40;1.67;;;1.50;;
3795;SDS011;1913;50.660;7.834;2023-03-13T04:55:05;2.13;;;1.17;;
3795;SDS011;1913;50.660;7.834;2023-03-13T04:57:31;2.20;;;1.17;;
3795;SDS011;1913;50.660;7.834;2023-03-13T04:59:57;2.90;;;1.30;;
3795;SDS011;1913;50.660;7.834;2023-03-13T05:02:22;2.03;;;1.30;;
3795;SDS011;1913;50.660;7.834;2023-03-13T05:04:47;1.47;;;1.20;;
3795;SDS011;1913;50.660;7.834;2023-03-13T05:07:13;1.40;;;1.30;;
3795;SDS011;1913;50.660;7.834;2023-03-13T05:09:38;1.63;;;1.43;;
3795;SDS011;1913;50.660;7.834;2023-03-13T05:12:03;3.23;;;1.80;;
3795;SDS011;1913;50.660;7.834;2023-03-13T05:14:29;1.73;;;1.20;;
3795;SDS011;1913;50.660;7.834;2023-03-13T05:16:54;1.10;;;1.00;;
3795;SDS011;1913;50.660;7.834;2023-03-13T05:19:20;2.63;;;1.10;;
3795;SDS011;1913;50.660;7.834;2023-03-13T05:21:45;1.07;;;1.00;;
3795;SDS011;1913;50.660;7.834;2023-03-13T05:24:10;2.87;;;1.27;;
3795;SDS011;1913;50.660;7.834;2023-03-13T05:26:36;1.73;;;1.27;;
3795;SDS011;1913;50.660;7.834;2023-03-13T05:29:01;2.70;;;1.20;;
3795;SDS011;1913;50.660;7.834;2023-03-13T05:31:26;2.03;;;1.23;;
3795;SDS011;1913;50.660;7.834;2023-03-13T05:33:52;2.67;;;1.40;;
3795;SDS011;1913;50.660;7.834;2023-03-13T05:36:17;1.47;;;1.37;;
3795;SDS011;1913;50.660;7.834;2023-03-13T05:38:47;1.40;;;1.30;;
3795;SDS011;1913;50.660;7.834;2023-03-13T05:41:12;5.00;;;1.00;;
3795;SDS011;1913;50.660;7.834;2023-03-13T05:43:37;1.43;;;1.30;;
3795;SDS011;1913;50.660;7.834;2023-03-13T05:46:03;1.17;;;1.07;;
3795;SDS011;1913;50.660;7.834;2023-03-13T05:48:28;1.20;;;1.10;;
3795;SDS011;1913;50.660;7.834;2023-03-13T05:50:54;2.17;;;1.33;;
3795;SDS011;1913;50.660;7.834;2023-03-13T05:53:19;1.20;;;1.10;;
3795;SDS011;1913;50.660;7.834;2023-03-13T05:55:45;1.23;;;1.13;;
3795;SDS011;1913;50.660;7.834;2023-03-13T05:58:10;1.30;;;1.20;;
3795;SDS011;1913;50.660;7.834;2023-03-13T06:00:35;1.37;;;1.27;;
3795;SDS011;1913;50.660;7.834;2023-03-13T06:03:01;1.30;;;1.03;;
3795;SDS011;1913;50.660;7.834;2023-03-13T06:05:26;1.87;;;1.37;;
3795;SDS011;1913;50.660;7.834;2023-03-13T06:07:52;2.03;;;1.60;;
3795;SDS011;1913;50.660;7.834;2023-03-13T06:10:17;2.60;;;1.60;;
3795;SDS011;1913;50.660;7.834;2023-03-13T06:12:42;1.60;;;1.50;;
3795;SDS011;1913;50.660;7.834;2023-03-13T06:15:08;1.50;;;1.40;;
3795;SDS011;1913;50.660;7.834;2023-03-13T06:17:35;1.70;;;1.60;;
3795;SDS011;1913;50.660;7.834;2023-03-13T06:20:00;3.50;;;1.47;;
3795;SDS011;1913;50.660;7.834;2023-03-13T06:22:28;1.53;;;1.43;;
3795;SDS011;1913;50.660;7.834;2023-03-13T06:24:54;2.00;;;1.83;;
3795;SDS011;1913;50.660;7.834;2023-03-13T06:27:21;1.50;;;1.40;;
3795;SDS011;1913;50.660;7.834;2023-03-13T06:29:46;1.67;;;1.53;;
3795;SDS011;1913;50.660;7.834;2023-03-13T06:32:11;1.93;;;1.53;;
3795;SDS011;1913;50.660;7.834;2023-03-13T06:34:37;1.60;;;1.50;;
3795;SDS011;1913;50.660;7.834;2023-03-13T06:37:02;1.57;;;1.47;;
3795;SDS011;1913;50.660;7.834;2023-03-13T06:39:28;3.40;;;1.50;;
3795;SDS011;1913;50.660;7.834;2023-03-13T06:41:53;4.00;;;2.10;;
3795;SDS011;1913;50.660;7.834;2023-03-13T06:44:19;3.37;;;1.50;;
3795;SDS011;1913;50.660;7.834;2023-03-13T06:46:44;2.70;;;1.63;;
3795;SDS011;1913;50.660;7.834;2023-03-13T06:49:09;7.23;;;1.80;;
3795;SDS011;1913;50.660;7.834;2023-03-13T06:51:35;1.93;;;1.70;;
3795;SDS011;1913;50.660;7.834;2023-03-13T06:54:01;1.80;;;1.60;;
3795;SDS011;1913;50.660;7.834;2023-03-13T06:56:27;1.70;;;1.60;;
3795;SDS011;1913;50.660;7.834;2023-03-13T06:58:54;1.57;;;1.47;;
3795;SDS011;1913;50.660;7.834;2023-03-13T07:01:19;1.80;;;1.70;;
3795;SDS011;1913;50.660;7.834;2023-03-13T07:03:45;1.53;;;1.43;;
3795;SDS011;1913;50.660;7.834;2023-03-13T07:06:12;1.83;;;1.73;;
3795;SDS011;1913;50.660;7.834;2023-03-13T07:08:38;1.93;;;1.83;;
3795;SDS011;1913;50.660;7.834;2023-03-13T07:11:05;1.93;;;1.63;;
3795;SDS011;1913;50.660;7.834;2023-03-13T07:13:32;2.83;;;1.73;;
3795;SDS011;1913;50.660;7.834;2023-03-13T07:16:01;2.13;;;1.50;;
3795;SDS011;1913;50.660;7.834;2023-03-13T07:18:28;1.50;;;1.40;;
3795;SDS011;1913;50.660;7.834;2023-03-13T07:20:55;2.07;;;1.87;;
3795;SDS011;1913;50.660;7.834;2023-03-13T07:23:22;1.60;;;1.50;;
3795;SDS011;1913;50.660;7.834;2023-03-13T07:26:09;1.93;;;1.60;;
3795;SDS011;1913;50.660;7.834;2023-03-13T07:28:36;4.43;;;2.10;;
3795;SDS011;1913;50.660;7.834;2023-03-13T07:31:02;2.20;;;2.00;;
3795;SDS011;1913;50.660;7.834;2023-03-13T07:33:39;2.13;;;2.00;;
3795;SDS011;1913;50.660;7.834;2023-03-13T07:36:05;2.63;;;2.37;;
3795;SDS011;1913;50.660;7.834;2023-03-13T07:38:31;2.47;;;2.23;;
3795;SDS011;1913;50.660;7.834;2023-03-13T07:40:57;2.70;;;2.03;;
3795;SDS011;1913;50.660;7.834;2023-03-13T07:43:22;4.27;;;2.80;;
3795;SDS011;1913;50.660;7.834;2023-03-13T07:45:56;5.40;;;2.50;;
3795;SDS011;1913;50.660;7.834;2023-03-13T07:48:24;5.37;;;2.60;;
3795;SDS011;1913;50.660;7.834;2023-03-13T07:50:54;3.43;;;2.73;;
3795;SDS011;1913;50.660;7.834;2023-03-13T07:53:20;3.30;;;2.60;;
3795;SDS011;1913;50.660;7.834;2023-03-13T07:55:56;4.90;;;3.13;;
3795;SDS011;1913;50.660;7.834;2023-03-13T07:58:24;4.03;;;2.50;;
3795;SDS011;1913;50.660;7.834;2023-03-13T08:00:52;8.37;;;2.93;;
3795;SDS011;1913;50.660;7.834;2023-03-13T08:03:18;4.63;;;3.10;;
3795;SDS011;1913;50.660;7.834;2023-03-13T08:05:43;8.90;;;2.60;;
3795;SDS011;1913;50.660;7.834;2023-03-13T08:08:09;6.33;;;2.60;;
3795;SDS011;1913;50.660;7.834;2023-03-13T08:10:34;6.80;;;3.10;;
3795;SDS011;1913;50.660;7.834;2023-03-13T08:13:00;5.67;;;2.73;;
3795;SDS011;1913;50.660;7.834;2023-03-13T08:15:26;7.80;;;2.93;;
3795;SDS011;1913;50.660;7.834;2023-03-13T08:17:52;4.57;;;3.20;;
3795;SDS011;1913;50.660;7.834;2023-03-13T08:20:19;6.00;;;3.17;;
3795;SDS011;1913;50.660;7.834;2023-03-13T08:22:44;4.83;;;3.17;;
3795;SDS011;1913;50.660;7.834;2023-03-13T08:25:10;11.17;;;3.50;;
3795;SDS011;1913;50.660;7.834;2023-03-13T08:27:37;4.50;;;2.50;;
3795;SDS011;1913;50.660;7.834;2023-03-13T08:30:02;5.07;;;2.80;;
3795;SDS011;1913;50.660;7.834;2023-03-13T08:32:32;4.00;;;2.80;;
3795;SDS011;1913;50.660;7.834;2023-03-13T08:34:57;4.83;;;3.00;;
3795;SDS011;1913;50.660;7.834;2023-03-13T08:37:23;7.23;;;2.70;;
3795;SDS011;1913;50.660;7.834;2023-03-13T08:39:48;4.67;;;3.10;;
3795;SDS011;1913;50.660;7.834;2023-03-13T08:42:13;4.37;;;3.27;;
3795;SDS011;1913;50.660;7.834;2023-03-13T08:44:39;4.13;;;3.10;;
3795;SDS011;1913;50.660;7.834;2023-03-13T08:47:04;4.87;;;2.73;;
3795;SDS011;1913;50.660;7.834;2023-03-13T08:49:30;6.93;;;3.00;;
3795;SDS011;1913;50.660;7.834;2023-03-13T08:51:56;6.23;;;3.90;;
3795;SDS011;1913;50.660;7.834;2023-03-13T08:54:21;6.57;;;2.80;;
3795;SDS011;1913;50.660;7.834;2023-03-13T08:56:46;4.93;;;3.13;;
3795;SDS011;1913;50.660;7.834;2023-03-13T08:59:12;5.17;;;3.00;;
3795;SDS011;1913;50.660;7.834;2023-03-13T09:01:39;3.83;;;2.80;;
3795;SDS011;1913;50.660;7.834;2023-03-13T09:04:06;5.20;;;3.40;;
3795;SDS011;1913;50.660;7.834;2023-03-13T09:06:34;5.57;;;2.90;;
3795;SDS011;1913;50.660;7.834;2023-03-13T09:09:01;7.13;;;3.00;;
3795;SDS011;1913;50.660;7.834;2023-03-13T09:11:28;3.27;;;2.70;;
3795;SDS011;1913;50.660;7.834;2023-03-13T09:13:53;5.67;;;2.80;;
3795;SDS011;1913;50.660;7.834;2023-03-13T09:16:20;6.93;;;2.93;;
3795;SDS011;1913;50.660;7.834;2023-03-13T09:18:48;3.60;;;2.63;;
3795;SDS011;1913;50.660;7.834;2023-03-13T09:21:16;5.03;;;2.97;;
3795;SDS011;1913;50.660;7.834;2023-03-13T09:23:44;6.83;;;2.93;;
3795;SDS011;1913;50.660;7.834;2023-03-13T09:26:10;5.50;;;2.73;;
3795;SDS011;1913;50.660;7.834;2023-03-13T09:28:36;4.03;;;2.53;;
3795;SDS011;1913;50.660;7.834;2023-03-13T09:31:09;4.10;;;2.80;;
3795;SDS011;1913;50.660;7.834;2023-03-13T09:33:37;7.77;;;2.73;;
3795;SDS011;1913;50.660;7.834;2023-03-13T09:36:03;5.70;;;2.90;;
3795;SDS011;1913;50.660;7.834;2023-03-13T09:38:29;7.47;;;3.23;;
3795;SDS011;1913;50.660;7.834;2023-03-13T09:40:54;6.63;;;3.10;;
3795;SDS011;1913;50.660;7.834;2023-03-13T09:43:24;9.87;;;3.00;;
3795;SDS011;1913;50.660;7.834;2023-03-13T09:46:05;7.07;;;3.50;;
3795;SDS011;1913;50.660;7.834;2023-03-13T09:48:47;11.20;;;3.50;;
3795;SDS011;1913;50.660;7.834;2023-03-13T09:53:45;9.70;;;3.27;;
3795;SDS011;1913;50.660;7.834;2023-03-13T09:56:17;10.40;;;3.10;;
3795;SDS011;1913;50.660;7.834;2023-03-13T09:58:49;6.80;;;3.47;;
3795;SDS011;1913;50.660;7.834;2023-03-13T10:01:19;7.97;;;3.83;;
3795;SDS011;1913;50.660;7.834;2023-03-13T10:03:55;4.20;;;3.60;;
3795;SDS011;1913;50.660;7.834;2023-03-13T10:06:27;8.50;;;3.53;;
3795;SDS011;1913;50.660;7.834;2023-03-13T10:08:57;8.37;;;3.80;;
3795;SDS011;1913;50.660;7.834;2023-03-13T10:11:40;9.53;;;4.83;;
3795;SDS011;1913;50.660;7.834;2023-03-13T10:14:19;7.70;;;4.43;;
3795;SDS011;1913;50.660;7.834;2023-03-13T10:16:55;6.90;;;3.90;;
3795;SDS011;1913;50.660;7.834;2023-03-13T10:19:36;6.00;;;4.40;;
3795;SDS011;1913;50.660;7.834;2023-03-13T10:22:11;6.77;;;3.77;;
3795;SDS011;1913;50.660;7.834;2023-03-13T10:27:22;7.47;;;3.80;;
3795;SDS011;1913;50.660;7.834;2023-03-13T10:29:48;7.60;;;3.90;;
3795;SDS011;1913;50.660;7.834;2023-03-13T10:32:15;6.67;;;3.80;;
3795;SDS011;1913;50.660;7.834;2023-03-13T10:37:21;4.40;;;3.90;;
3795;SDS011;1913;50.660;7.834;2023-03-13T10:39:48;7.80;;;3.90;;
3795;SDS011;1913;50.660;7.834;2023-03-13T10:42:26;7.20;;;4.23;;
3795;SDS011;1913;50.660;7.834;2023-03-13T10:45:03;5.87;;;3.80;;
3795;SDS011;1913;50.660;7.834;2023-03-13T10:47:33;7.03;;;4.30;;
3795;SDS011;1913;50.660;7.834;2023-03-13T10:49:59;5.30;;;3.97;;
3795;SDS011;1913;50.660;7.834;2023-03-13T10:52:41;9.33;;;4.67;;
3795;SDS011;1913;50.660;7.834;2023-03-13T10:55:09;9.80;;;3.90;;
3795;SDS011;1913;50.660;7.834;2023-03-13T10:57:37;5.70;;;4.20;;
3795;SDS011;1913;50.660;7.834;2023-03-13T11:00:28;6.83;;;4.17;;
3795;SDS011;1913;50.660;7.834;2023-03-13T11:02:58;7.83;;;4.20;;
3795;SDS011;1913;50.660;7.834;2023-03-13T11:07:51;5.83;;;3.80;;
3795;SDS011;1913;50.660;7.834;2023-03-13T11:10:28;7.60;;;4.37;;
3795;SDS011;1913;50.660;7.834;2023-03-13T11:12:55;5.13;;;4.07;;
3795;SDS011;1913;50.660;7.834;2023-03-13T11:18:27;4.40;;;4.00;;
3795;SDS011;1913;50.660;7.834;2023-03-13T11:21:04;9.30;;;3.47;;
3795;SDS011;1913;50.660;7.834;2023-03-13T11:23:36;5.00;;;4.00;;
3795;SDS011;1913;50.660;7.834;2023-03-13T11:31:58;6.07;;;3.33;;
3795;SDS011;1913;50.660;7.834;2023-03-13T11:37:09;4.30;;;3.30;;
3795;SDS011;1913;50.660;7.834;2023-03-13T11:45:08;3.93;;;3.50;;
3795;SDS011;1913;50.660;7.834;2023-03-13T11:47:58;7.43;;;4.20;;
3795;SDS011;1913;50.660;7.834;2023-03-13T11:51:02;5.50;;;3.53;;
3795;SDS011;1913;50.660;7.834;2023-03-13T11:56:34;5.33;;;3.87;;
3795;SDS011;1913;50.660;7.834;2023-03-13T12:04:53;10.17;;;5.10;;
3795;SDS011;1913;50.660;7.834;2023-03-13T12:07:27;6.67;;;5.17;;
3795;SDS011;1913;50.660;7.834;2023-03-13T12:10:03;6.63;;;5.20;;
3795;SDS011;1913;50.660;7.834;2023-03-13T12:12:48;5.33;;;4.40;;
3795;SDS011;1913;50.660;7.834;2023-03-13T12:15:24;5.23;;;4.43;;
3795;SDS011;1913;50.660;7.834;2023-03-13T12:17:59;7.13;;;4.87;;
3795;SDS011;1913;50.660;7.834;2023-03-13T12:20:40;5.83;;;4.77;;
3795;SDS011;1913;50.660;7.834;2023-03-13T12:25:52;8.90;;;4.80;;
3795;SDS011;1913;50.660;7.834;2023-03-13T12:33:44;10.00;;;4.77;;
3795;SDS011;1913;50.660;7.834;2023-03-13T12:41:43;8.10;;;4.43;;
3795;SDS011;1913;50.660;7.834;2023-03-13T12:44:31;7.40;;;4.63;;
3795;SDS011;1913;50.660;7.834;2023-03-13T12:47:02;8.20;;;4.53;;
3795;SDS011;1913;50.660;7.834;2023-03-13T12:55:22;6.57;;;4.30;;
3795;SDS011;1913;50.660;7.834;2023-03-13T13:00:51;4.80;;;3.80;;
3795;SDS011;1913;50.660;7.834;2023-03-13T13:06:01;7.03;;;3.73;;
3795;SDS011;1913;50.660;7.834;2023-03-13T13:08:32;5.30;;;3.70;;
3795;SDS011;1913;50.660;7.834;2023-03-13T13:16:43;7.70;;;3.20;;
3795;SDS011;1913;50.660;7.834;2023-03-13T13:24:51;7.93;;;2.90;;
3795;SDS011;1913;50.660;7.834;2023-03-13T13:29:56;5.00;;;2.73;;
3795;SDS011;1913;50.660;7.834;2023-03-13T13:32:36;3.27;;;2.70;;
3795;SDS011;1913;50.660;7.834;2023-03-13T13:35:04;3.13;;;2.83;;
3795;SDS011;1913;50.660;7.834;2023-03-13T13:37:37;3.83;;;2.80;;
3795;SDS011;1913;50.660;7.834;2023-03-13T13:40:17;2.83;;;2.53;;
3795;SDS011;1913;50.660;7.834;2023-03-13T13:47:42;4.27;;;2.80;;
3795;SDS011;1913;50.660;7.834;2023-03-13T13:50:25;3.43;;;2.40;;
3795;SDS011;1913;50.660;7.834;2023-03-13T13:52:52;3.90;;;2.30;;
3795;SDS011;1913;50.660;7.834;2023-03-13T13:55:57;4.70;;;3.23;;
3795;SDS011;1913;50.660;7.834;2023-03-13T13:58:23;4.57;;;2.43;;
3795;SDS011;1913;50.660;7.834;2023-03-13T14:01:01;7.37;;;2.37;;
3795;SDS011;1913;50.660;7.834;2023-03-13T14:03:36;2.83;;;1.97;;
3795;SDS011;1913;50.660;7.834;2023-03-13T14:08:56;2.90;;;2.37;;
3795;SDS011;1913;50.660;7.834;2023-03-13T14:11:37;10.37;;;2.20;;
3795;SDS011;1913;50.660;7.834;2023-03-13T14:14:10;4.30;;;2.83;;
3795;SDS011;1913;50.660;7.834;2023-03-13T14:16:42;2.93;;;2.20;;
3795;SDS011;1913;50.660;7.834;2023-03-13T14:19:29;5.13;;;2.17;;
3795;SDS011;1913;50.660;7.834;2023-03-13T14:22:03;2.77;;;2.10;;
3795;SDS011;1913;50.660;7.834;2023-03-13T14:24:30;2.67;;;1.87;;
3795;SDS011;1913;50.660;7.834;2023-03-13T14:26:56;5.93;;;2.00;;
3795;SDS011;1913;50.660;7.834;2023-03-13T14:29:21;2.50;;;1.87;;
3795;SDS011;1913;50.660;7.834;2023-03-13T14:31:57;2.50;;;1.70;;
3795;SDS011;1913;50.660;7.834;2023-03-13T14:34:24;4.03;;;1.73;;
3795;SDS011;1913;50.660;7.834;2023-03-13T14:36:51;4.30;;;2.40;;
3795;SDS011;1913;50.660;7.834;2023-03-13T14:39:20;2.47;;;2.00;;
3795;SDS011;1913;50.660;7.834;2023-03-13T14:42:04;2.00;;;1.80;;
3795;SDS011;1913;50.660;7.834;2023-03-13T14:44:33;4.57;;;1.83;;
3795;SDS011;1913;50.660;7.834;2023-03-13T14:47:03;2.00;;;1.70;;
3795;SDS011;1913;50.660;7.834;2023-03-13T14:49:31;2.07;;;1.80;;
3795;SDS011;1913;50.660;7.834;2023-03-13T14:52:04;1.43;;;1.33;;
3795;SDS011;1913;50.660;7.834;2023-03-13T14:54:34;2.00;;;1.90;;
3795;SDS011;1913;50.660;7.834;2023-03-13T14:57:04;1.67;;;1.53;;
3795;SDS011;1913;50.660;7.834;2023-03-13T14:59:37;1.83;;;1.60;;
3795;SDS011;1913;50.660;7.834;2023-03-13T15:02:20;1.67;;;1.57;;
3795;SDS011;1913;50.660;7.834;2023-03-13T15:04:54;3.03;;;1.60;;
3795;SDS011;1913;50.660;7.834;2023-03-13T15:07:36;1.77;;;1.43;;
3795;SDS011;1913;50.660;7.834;2023-03-13T15:15:50;1.77;;;1.40;;
3795;SDS011;1913;50.660;7.834;2023-03-13T15:18:17;2.63;;;1.60;;
3795;SDS011;1913;50.660;7.834;2023-03-13T15:20:56;1.30;;;1.20;;
3795;SDS011;1913;50.660;7.834;2023-03-13T15:23:24;1.53;;;1.43;;
3795;SDS011;1913;50.660;7.834;2023-03-13T15:25:49;2.93;;;1.60;;
3795;SDS011;1913;50.660;7.834;2023-03-13T15:28:19;2.20;;;1.50;;
3795;SDS011;1913;50.660;7.834;2023-03-13T15:30:47;1.50;;;1.30;;
3795;SDS011;1913;50.660;7.834;2023-03-13T15:33:15;2.63;;;1.33;;
3795;SDS011;1913;50.660;7.834;2023-03-13T15:35:43;1.77;;;1.50;;
3795;SDS011;1913;50.660;7.834;2023-03-13T15:38:11;3.63;;;1.20;;
3795;SDS011;1913;50.660;7.834;2023-03-13T15:40:38;1.40;;;1.30;;
3795;SDS011;1913;50.660;7.834;2023-03-13T15:43:04;1.37;;;1.27;;
3795;SDS011;1913;50.660;7.834;2023-03-13T15:45:29;2.40;;;1.50;;
3795;SDS011;1913;50.660;7.834;2023-03-13T15:47:55;1.80;;;1.47;;
3795;SDS011;1913;50.660;7.834;2023-03-13T15:50:20;1.63;;;1.30;;
3795;SDS011;1913;50.660;7.834;2023-03-13T15:52:53;1.70;;;1.17;;
3795;SDS011;1913;50.660;7.834;2023-03-13T15:55:19;2.60;;;1.20;;
3795;SDS011;1913;50.660;7.834;2023-03-13T15:57:44;1.50;;;1.40;;
3795;SDS011;1913;50.660;7.834;2023-03-13T16:00:23;2.13;;;1.23;;
3795;SDS011;1913;50.660;7.834;2023-03-13T16:02:50;1.17;;;1.00;;
3795;SDS011;1913;50.660;7.834;2023-03-13T16:05:15;3.93;;;1.10;;
3795;SDS011;1913;50.660;7.834;2023-03-13T16:07:41;2.93;;;1.20;;
3795;SDS011;1913;50.660;7.834;2023-03-13T16:10:14;3.20;;;1.27;;
3795;SDS011;1913;50.660;7.834;2023-03-13T16:12:47;5.23;;;1.20;;
3795;SDS011;1913;50.660;7.834;2023-03-13T16:15:12;2.70;;;1.37;;
3795;SDS011;1913;50.660;7.834;2023-03-13T16:17:38;2.60;;;1.10;;
3795;SDS011;1913;50.660;7.834;2023-03-13T16:20:03;3.10;;;1.90;;
3795;SDS011;1913;50.660;7.834;2023-03-13T16:22:36;2.73;;;2.50;;
3795;SDS011;1913;50.660;7.834;2023-03-13T16:25:02;4.30;;;1.40;;
3795;SDS011;1913;50.660;7.834;2023-03-13T16:27:28;1.40;;;1.20;;
3795;SDS011;1913;50.660;7.834;2023-03-13T16:29:53;5.63;;;3.20;;
3795;SDS011;1913;50.660;7.834;2023-03-13T16:32:19;2.50;;;1.83;;
3795;SDS011;1913;50.660;7.834;2023-03-13T16:34:48;1.97;;;1.50;;
3795;SDS011;1913;50.660;7.834;2023-03-13T16:37:17;1.67;;;1.23;;
3795;SDS011;1913;50.660;7.834;2023-03-13T16:39:46;3.20;;;1.87;;
3795;SDS011;1913;50.660;7.834;2023-03-13T16:42:13;1.20;;;1.10;;
3795;SDS011;1913;50.660;7.834;2023-03-13T16:44:39;1.57;;;1.27;;
3795;SDS011;1913;50.660;7.834;2023-03-13T16:47:15;2.03;;;1.83;;
3795;SDS011;1913;50.660;7.834;2023-03-13T16:49:47;1.37;;;1.23;;